sensor_id;sensor_type;location;lat;lon;timestamp;temperature;humidity
54082;DHT22;39986;50.770;0.266;2023-07-22T00:01:32;16.80;99.90
54082;DHT22;39986;50.770;0.266;2023-07-22T00:03:58;16.80;99.90
54082;DHT22;39986;50.770;0.266;2023-07-22T00:06:23;16.70;99.90
54082;DHT22;39986;50.770;0.266;2023-07-22T00:08:49;16.70;99.90
54082;DHT22;39986;50.770;0.266;2023-07-22T00:11:15;16.70;99.90
54082;DHT22;39986;50.770;0.266;2023-07-22T00:13:40;16.70;99.90
54082;DHT22;39986;50.770;0.266;2023-07-22T00:16:06;16.60;99.90
54082;DHT22;39986;50.770;0.266;2023-07-22T00:18:33;16.60;99.90
54082;DHT22;39986;50.770;0.266;2023-07-22T00:20:59;16.60;99.90
54082;DHT22;39986;50.770;0.266;2023-07-22T00:23:24;16.60;99.90
54082;DHT22;39986;50.770;0.266;2023-07-22T00:25:50;16.60;99.90
54082;DHT22;39986;50.770;0.266;2023-07-22T00:28:15;16.50;99.90
54082;DHT22;39986;50.770;0.266;2023-07-22T00:30:41;16.40;99.90
54082;DHT22;39986;50.770;0.266;2023-07-22T00:33:07;16.40;99.90
54082;DHT22;39986;50.770;0.266;2023-07-22T00:35:33;16.30;99.90
54082;DHT22;39986;50.770;0.266;2023-07-22T00:37:59;16.30;99.90
54082;DHT22;39986;50.770;0.266;2023-07-22T00:40:25;16.30;99.90
54082;DHT22;39986;50.770;0.266;2023-07-22T00:42:50;16.30;99.90
54082;DHT22;39986;50.770;0.266;2023-07-22T00:45:16;16.30;99.90
54082;DHT22;39986;50.770;0.266;2023-07-22T00:47:41;16.30;99.90
54082;DHT22;39986;50.770;0.266;2023-07-22T00:50:07;16.20;99.90
54082;DHT22;39986;50.770;0.266;2023-07-22T00:52:36;16.10;99.90
54082;DHT22;39986;50.770;0.266;2023-07-22T00:55:02;16.20;99.90
54082;DHT22;39986;50.770;0.266;2023-07-22T00:57:28;16.10;99.90
54082;DHT22;39986;50.770;0.266;2023-07-22T00:59:54;16.00;99.90
54082;DHT22;39986;50.770;0.266;2023-07-22T01:02:19;16.00;99.90
54082;DHT22;39986;50.770;0.266;2023-07-22T01:04:45;16.10;99.90
54082;DHT22;39986;50.770;0.266;2023-07-22T01:07:11;16.00;99.90
54082;DHT22;39986;50.770;0.266;2023-07-22T01:09:38;16.00;99.90
54082;DHT22;39986;50.770;0.266;2023-07-22T01:12:03;16.00;99.90
54082;DHT22;39986;50.770;0.266;2023-07-22T01:14:32;16.00;99.90
54082;DHT22;39986;50.770;0.266;2023-07-22T01:16:58;16.00;99.90
54082;DHT22;39986;50.770;0.266;2023-07-22T01:19:24;15.90;99.90
54082;DHT22;39986;50.770;0.266;2023-07-22T01:21:49;16.00;99.90
54082;DHT22;39986;50.770;0.266;2023-07-22T01:24:15;16.10;99.90
54082;DHT22;39986;50.770;0.266;2023-07-22T01:26:41;16.00;99.90
54082;DHT22;39986;50.770;0.266;2023-07-22T01:29:07;16.00;99.90
54082;DHT22;39986;50.770;0.266;2023-07-22T01:31:34;15.90;99.90
54082;DHT22;39986;50.770;0.266;2023-07-22T01:34:00;15.90;99.90
54082;DHT22;39986;50.770;0.266;2023-07-22T01:36:25;15.90;99.90
54082;DHT22;39986;50.770;0.266;2023-07-22T01:38:51;15.80;99.90
54082;DHT22;39986;50.770;0.266;2023-07-22T01:41:16;15.80;99.90
54082;DHT22;39986;50.770;0.266;2023-07-22T01:43:42;15.80;99.90
54082;DHT22;39986;50.770;0.266;2023-07-22T01:46:07;15.80;99.90
54082;DHT22;39986;50.770;0.266;2023-07-22T01:48:33;15.80;99.90
54082;DHT22;39986;50.770;0.266;2023-07-22T01:50:58;15.80;99.90
54082;DHT22;39986;50.770;0.266;2023-07-22T01:53:24;15.80;99.90
54082;DHT22;39986;50.770;0.266;2023-07-22T01:55:49;15.80;99.90
54082;DHT22;39986;50.770;0.266;2023-07-22T01:58:15;15.80;99.90
54082;DHT22;39986;50.770;0.266;2023-07-22T02:00:40;15.70;99.90
54082;DHT22;39986;50.770;0.266;2023-07-22T02:03:06;15.70;99.90
54082;DHT22;39986;50.770;0.266;2023-07-22T02:05:31;15.60;99.90
54082;DHT22;39986;50.770;0.266;2023-07-22T02:07:57;15.60;99.90
54082;DHT22;39986;50.770;0.266;2023-07-22T02:10:23;15.50;99.90
54082;DHT22;39986;50.770;0.266;2023-07-22T02:12:48;15.50;99.90
54082;DHT22;39986;50.770;0.266;2023-07-22T02:15:14;15.50;99.90
54082;DHT22;39986;50.770;0.266;2023-07-22T02:17:41;15.40;99.90
54082;DHT22;39986;50.770;0.266;2023-07-22T02:20:07;15.40;99.90
54082;DHT22;39986;50.770;0.266;2023-07-22T02:22:34;15.30;99.90
54082;DHT22;39986;50.770;0.266;2023-07-22T02:24:59;15.30;99.90
54082;DHT22;39986;50.770;0.266;2023-07-22T02:27:25;15.20;99.90
54082;DHT22;39986;50.770;0.266;2023-07-22T02:29:50;15.20;99.90
54082;DHT22;39986;50.770;0.266;2023-07-22T02:32:17;15.20;99.90
54082;DHT22;39986;50.770;0.266;2023-07-22T02:34:42;15.20;99.90
54082;DHT22;39986;50.770;0.266;2023-07-22T02:37:08;15.30;99.90
54082;DHT22;39986;50.770;0.266;2023-07-22T02:39:33;15.30;99.90
54082;DHT22;39986;50.770;0.266;2023-07-22T02:41:59;15.30;99.90
54082;DHT22;39986;50.770;0.266;2023-07-22T02:44:24;15.30;99.90
54082;DHT22;39986;50.770;0.266;2023-07-22T02:46:50;15.30;99.90
54082;DHT22;39986;50.770;0.266;2023-07-22T02:49:15;15.20;99.90
54082;DHT22;39986;50.770;0.266;2023-07-22T02:51:41;15.30;99.90
54082;DHT22;39986;50.770;0.266;2023-07-22T02:54:06;15.20;99.90
54082;DHT22;39986;50.770;0.266;2023-07-22T02:56:32;15.20;99.90
54082;DHT22;39986;50.770;0.266;2023-07-22T02:58:57;15.20;99.90
54082;DHT22;39986;50.770;0.266;2023-07-22T03:01:23;15.30;99.90
54082;DHT22;39986;50.770;0.266;2023-07-22T03:03:49;15.30;99.90
54082;DHT22;39986;50.770;0.266;2023-07-22T03:06:15;15.30;99.90
54082;DHT22;39986;50.770;0.266;2023-07-22T03:08:41;15.30;99.90
54082;DHT22;39986;50.770;0.266;2023-07-22T03:11:06;15.30;99.90
54082;DHT22;39986;50.770;0.266;2023-07-22T03:13:32;15.30;99.90
54082;DHT22;39986;50.770;0.266;2023-07-22T03:15:59;15.40;99.90
54082;DHT22;39986;50.770;0.266;2023-07-22T03:18:24;15.40;99.90
54082;DHT22;39986;50.770;0.266;2023-07-22T03:20:50;15.40;99.90
54082;DHT22;39986;50.770;0.266;2023-07-22T03:23:17;15.40;99.90
54082;DHT22;39986;50.770;0.266;2023-07-22T03:25:42;15.40;99.90
54082;DHT22;39986;50.770;0.266;2023-07-22T03:28:08;15.50;99.90
54082;DHT22;39986;50.770;0.266;2023-07-22T03:30:33;15.50;99.90
54082;DHT22;39986;50.770;0.266;2023-07-22T03:32:59;15.50;99.90
54082;DHT22;39986;50.770;0.266;2023-07-22T03:35:26;15.50;99.90
54082;DHT22;39986;50.770;0.266;2023-07-22T03:37:51;15.50;99.90
54082;DHT22;39986;50.770;0.266;2023-07-22T03:40:17;15.50;99.90
54082;DHT22;39986;50.770;0.266;2023-07-22T03:42:42;15.50;99.90
54082;DHT22;39986;50.770;0.266;2023-07-22T03:45:08;15.50;99.90
54082;DHT22;39986;50.770;0.266;2023-07-22T03:47:35;15.50;99.90
54082;DHT22;39986;50.770;0.266;2023-07-22T03:50:00;15.50;99.90
54082;DHT22;39986;50.770;0.266;2023-07-22T03:52:26;15.50;99.90
54082;DHT22;39986;50.770;0.266;2023-07-22T03:54:51;15.50;99.90
54082;DHT22;39986;50.770;0.266;2023-07-22T03:57:17;15.50;99.90
54082;DHT22;39986;50.770;0.266;2023-07-22T03:59:42;15.40;99.90
54082;DHT22;39986;50.770;0.266;2023-07-22T04:02:08;15.50;99.90
54082;DHT22;39986;50.770;0.266;2023-07-22T04:04:34;15.50;99.90
54082;DHT22;39986;50.770;0.266;2023-07-22T04:06:59;15.40;99.90
54082;DHT22;39986;50.770;0.266;2023-07-22T04:09:26;15.50;99.90
54082;DHT22;39986;50.770;0.266;2023-07-22T04:11:52;15.50;99.90
54082;DHT22;39986;50.770;0.266;2023-07-22T04:14:17;15.40;99.90
54082;DHT22;39986;50.770;0.266;2023-07-22T04:16:43;15.40;99.90
54082;DHT22;39986;50.770;0.266;2023-07-22T04:19:08;15.40;99.90
54082;DHT22;39986;50.770;0.266;2023-07-22T04:21:34;15.50;99.90
54082;DHT22;39986;50.770;0.266;2023-07-22T04:24:00;15.50;99.90
54082;DHT22;39986;50.770;0.266;2023-07-22T04:26:25;15.50;99.90
54082;DHT22;39986;50.770;0.266;2023-07-22T04:28:51;15.50;99.90
54082;DHT22;39986;50.770;0.266;2023-07-22T04:31:16;15.40;99.90
54082;DHT22;39986;50.770;0.266;2023-07-22T04:33:42;15.50;99.90
54082;DHT22;39986;50.770;0.266;2023-07-22T04:36:07;15.50;99.90
54082;DHT22;39986;50.770;0.266;2023-07-22T04:38:33;15.50;99.90
54082;DHT22;39986;50.770;0.266;2023-07-22T04:40:59;15.50;99.90
54082;DHT22;39986;50.770;0.266;2023-07-22T04:43:27;15.50;99.90
54082;DHT22;39986;50.770;0.266;2023-07-22T04:45:52;15.60;99.90
54082;DHT22;39986;50.770;0.266;2023-07-22T04:48:19;15.50;99.90
54082;DHT22;39986;50.770;0.266;2023-07-22T04:50:45;15.70;99.90
54082;DHT22;39986;50.770;0.266;2023-07-22T04:53:11;15.60;99.90
54082;DHT22;39986;50.770;0.266;2023-07-22T04:55:38;15.70;99.90
54082;DHT22;39986;50.770;0.266;2023-07-22T04:58:04;15.70;99.90
54082;DHT22;39986;50.770;0.266;2023-07-22T05:00:30;15.80;99.90
54082;DHT22;39986;50.770;0.266;2023-07-22T05:02:56;15.90;99.90
54082;DHT22;39986;50.770;0.266;2023-07-22T05:05:21;16.00;99.90
54082;DHT22;39986;50.770;0.266;2023-07-22T05:07:47;16.00;99.90
54082;DHT22;39986;50.770;0.266;2023-07-22T05:10:14;16.10;99.90
54082;DHT22;39986;50.770;0.266;2023-07-22T05:12:40;16.10;99.90
54082;DHT22;39986;50.770;0.266;2023-07-22T05:15:06;16.20;99.90
54082;DHT22;39986;50.770;0.266;2023-07-22T05:17:32;16.30;99.90
54082;DHT22;39986;50.770;0.266;2023-07-22T05:19:58;16.30;99.90
54082;DHT22;39986;50.770;0.266;2023-07-22T05:22:23;16.40;99.90
54082;DHT22;39986;50.770;0.266;2023-07-22T05:24:49;16.50;99.90
54082;DHT22;39986;50.770;0.266;2023-07-22T05:27:15;16.50;99.90
54082;DHT22;39986;50.770;0.266;2023-07-22T05:29:41;16.60;99.90
54082;DHT22;39986;50.770;0.266;2023-07-22T05:32:07;16.60;99.90
54082;DHT22;39986;50.770;0.266;2023-07-22T05:34:32;16.60;99.90
54082;DHT22;39986;50.770;0.266;2023-07-22T05:36:58;16.70;99.90
54082;DHT22;39986;50.770;0.266;2023-07-22T05:39:23;16.80;99.90
54082;DHT22;39986;50.770;0.266;2023-07-22T05:41:49;16.90;99.90
54082;DHT22;39986;50.770;0.266;2023-07-22T05:44:14;17.00;99.90
54082;DHT22;39986;50.770;0.266;2023-07-22T05:46:40;17.10;99.90
54082;DHT22;39986;50.770;0.266;2023-07-22T05:49:05;17.20;99.90
54082;DHT22;39986;50.770;0.266;2023-07-22T05:51:31;17.20;99.90
54082;DHT22;39986;50.770;0.266;2023-07-22T05:53:56;17.10;99.90
54082;DHT22;39986;50.770;0.266;2023-07-22T05:56:22;17.00;99.90
54082;DHT22;39986;50.770;0.266;2023-07-22T05:58:48;17.00;99.90
54082;DHT22;39986;50.770;0.266;2023-07-22T06:01:13;17.00;99.90
54082;DHT22;39986;50.770;0.266;2023-07-22T06:03:40;17.10;99.90
54082;DHT22;39986;50.770;0.266;2023-07-22T06:06:05;17.10;99.90
54082;DHT22;39986;50.770;0.266;2023-07-22T06:08:31;17.20;99.90
54082;DHT22;39986;50.770;0.266;2023-07-22T06:10:56;17.30;99.90
54082;DHT22;39986;50.770;0.266;2023-07-22T06:13:22;17.40;99.90
54082;DHT22;39986;50.770;0.266;2023-07-22T06:15:47;17.50;99.90
54082;DHT22;39986;50.770;0.266;2023-07-22T06:18:13;17.50;99.90
54082;DHT22;39986;50.770;0.266;2023-07-22T06:20:38;17.60;99.90
54082;DHT22;39986;50.770;0.266;2023-07-22T06:23:04;17.70;99.90
54082;DHT22;39986;50.770;0.266;2023-07-22T06:25:30;17.70;99.90
54082;DHT22;39986;50.770;0.266;2023-07-22T06:27:56;17.80;99.90
54082;DHT22;39986;50.770;0.266;2023-07-22T06:30:21;17.80;99.90
54082;DHT22;39986;50.770;0.266;2023-07-22T06:32:47;17.90;99.90
54082;DHT22;39986;50.770;0.266;2023-07-22T06:35:12;17.80;99.90
54082;DHT22;39986;50.770;0.266;2023-07-22T06:37:38;17.90;99.90
54082;DHT22;39986;50.770;0.266;2023-07-22T06:40:04;17.90;99.90
54082;DHT22;39986;50.770;0.266;2023-07-22T06:42:30;17.90;99.90
54082;DHT22;39986;50.770;0.266;2023-07-22T06:44:55;18.00;99.90
54082;DHT22;39986;50.770;0.266;2023-07-22T06:47:21;17.90;99.90
54082;DHT22;39986;50.770;0.266;2023-07-22T06:49:47;17.90;99.90
54082;DHT22;39986;50.770;0.266;2023-07-22T06:52:12;17.90;99.90
54082;DHT22;39986;50.770;0.266;2023-07-22T06:54:38;17.90;99.90
54082;DHT22;39986;50.770;0.266;2023-07-22T06:57:04;17.90;99.90
54082;DHT22;39986;50.770;0.266;2023-07-22T06:59:31;17.90;99.90
54082;DHT22;39986;50.770;0.266;2023-07-22T07:01:56;17.90;99.90
54082;DHT22;39986;50.770;0.266;2023-07-22T07:04:22;17.90;99.90
54082;DHT22;39986;50.770;0.266;2023-07-22T07:06:48;17.90;99.90
54082;DHT22;39986;50.770;0.266;2023-07-22T07:09:14;17.80;99.90
54082;DHT22;39986;50.770;0.266;2023-07-22T07:11:39;17.70;99.90
54082;DHT22;39986;50.770;0.266;2023-07-22T07:14:05;17.70;99.90
54082;DHT22;39986;50.770;0.266;2023-07-22T07:16:31;17.80;99.90
54082;DHT22;39986;50.770;0.266;2023-07-22T07:18:57;18.00;99.90
54082;DHT22;39986;50.770;0.266;2023-07-22T07:21:22;18.00;99.90
54082;DHT22;39986;50.770;0.266;2023-07-22T07:23:48;18.20;99.90
54082;DHT22;39986;50.770;0.266;2023-07-22T07:26:14;18.50;99.90
54082;DHT22;39986;50.770;0.266;2023-07-22T07:28:40;18.70;99.90
54082;DHT22;39986;50.770;0.266;2023-07-22T07:31:05;18.80;99.90
54082;DHT22;39986;50.770;0.266;2023-07-22T07:33:31;18.80;99.90
54082;DHT22;39986;50.770;0.266;2023-07-22T07:35:57;18.60;99.90
54082;DHT22;39986;50.770;0.266;2023-07-22T07:38:22;18.40;99.90
54082;DHT22;39986;50.770;0.266;2023-07-22T07:41:01;18.30;99.90
54082;DHT22;39986;50.770;0.266;2023-07-22T07:43:26;18.40;99.90
54082;DHT22;39986;50.770;0.266;2023-07-22T07:48:36;18.50;99.90
54082;DHT22;39986;50.770;0.266;2023-07-22T07:51:02;18.70;99.90
54082;DHT22;39986;50.770;0.266;2023-07-22T07:53:28;18.70;99.90
54082;DHT22;39986;50.770;0.266;2023-07-22T07:55:54;18.90;99.90
54082;DHT22;39986;50.770;0.266;2023-07-22T07:58:19;19.10;99.90
54082;DHT22;39986;50.770;0.266;2023-07-22T08:00:45;19.20;99.90
54082;DHT22;39986;50.770;0.266;2023-07-22T08:03:10;19.20;99.90
54082;DHT22;39986;50.770;0.266;2023-07-22T08:05:36;19.20;99.90
54082;DHT22;39986;50.770;0.266;2023-07-22T08:08:01;19.30;99.90
54082;DHT22;39986;50.770;0.266;2023-07-22T08:10:27;19.10;99.90
54082;DHT22;39986;50.770;0.266;2023-07-22T08:12:52;19.00;99.90
54082;DHT22;39986;50.770;0.266;2023-07-22T08:15:18;18.90;99.90
54082;DHT22;39986;50.770;0.266;2023-07-22T08:17:44;18.90;99.90
54082;DHT22;39986;50.770;0.266;2023-07-22T08:20:10;18.80;99.90
54082;DHT22;39986;50.770;0.266;2023-07-22T08:22:36;19.00;99.90
54082;DHT22;39986;50.770;0.266;2023-07-22T08:25:01;19.10;99.90
54082;DHT22;39986;50.770;0.266;2023-07-22T08:27:28;19.30;99.90
54082;DHT22;39986;50.770;0.266;2023-07-22T08:29:53;19.40;99.90
54082;DHT22;39986;50.770;0.266;2023-07-22T08:32:19;19.60;99.90
54082;DHT22;39986;50.770;0.266;2023-07-22T08:34:45;19.70;99.90
54082;DHT22;39986;50.770;0.266;2023-07-22T08:37:10;20.00;99.90
54082;DHT22;39986;50.770;0.266;2023-07-22T08:39:37;20.10;99.90
54082;DHT22;39986;50.770;0.266;2023-07-22T08:42:03;19.90;99.90
54082;DHT22;39986;50.770;0.266;2023-07-22T08:44:29;19.70;99.90
54082;DHT22;39986;50.770;0.266;2023-07-22T08:46:59;19.70;99.90
54082;DHT22;39986;50.770;0.266;2023-07-22T08:49:25;19.70;99.90
54082;DHT22;39986;50.770;0.266;2023-07-22T08:51:51;19.80;99.90
54082;DHT22;39986;50.770;0.266;2023-07-22T08:54:18;19.60;99.90
54082;DHT22;39986;50.770;0.266;2023-07-22T08:56:45;19.50;99.90
54082;DHT22;39986;50.770;0.266;2023-07-22T08:59:11;19.40;99.90
54082;DHT22;39986;50.770;0.266;2023-07-22T09:01:37;19.40;99.90
54082;DHT22;39986;50.770;0.266;2023-07-22T09:04:04;19.20;99.90
54082;DHT22;39986;50.770;0.266;2023-07-22T09:06:30;19.30;99.90
54082;DHT22;39986;50.770;0.266;2023-07-22T09:08:56;19.70;99.90
54082;DHT22;39986;50.770;0.266;2023-07-22T09:11:22;20.00;99.90
54082;DHT22;39986;50.770;0.266;2023-07-22T09:13:48;20.00;99.90
54082;DHT22;39986;50.770;0.266;2023-07-22T09:16:14;20.00;99.90
54082;DHT22;39986;50.770;0.266;2023-07-22T09:18:40;20.20;99.90
54082;DHT22;39986;50.770;0.266;2023-07-22T09:21:05;20.40;99.90
54082;DHT22;39986;50.770;0.266;2023-07-22T09:23:33;20.20;99.90
54082;DHT22;39986;50.770;0.266;2023-07-22T09:26:09;20.20;99.90
54082;DHT22;39986;50.770;0.266;2023-07-22T09:31:23;19.90;99.90
54082;DHT22;39986;50.770;0.266;2023-07-22T09:33:49;19.90;99.90
54082;DHT22;39986;50.770;0.266;2023-07-22T09:36:15;19.70;99.90
54082;DHT22;39986;50.770;0.266;2023-07-22T09:38:41;19.80;99.90
54082;DHT22;39986;50.770;0.266;2023-07-22T09:41:07;20.00;99.90
54082;DHT22;39986;50.770;0.266;2023-07-22T09:43:37;20.20;99.90
54082;DHT22;39986;50.770;0.266;2023-07-22T09:46:09;20.10;99.90
54082;DHT22;39986;50.770;0.266;2023-07-22T09:48:44;20.00;99.90
54082;DHT22;39986;50.770;0.266;2023-07-22T09:51:14;20.00;99.90
54082;DHT22;39986;50.770;0.266;2023-07-22T09:53:44;20.10;99.90
54082;DHT22;39986;50.770;0.266;2023-07-22T09:56:09;20.10;99.90
54082;DHT22;39986;50.770;0.266;2023-07-22T09:58:35;20.40;99.90
54082;DHT22;39986;50.770;0.266;2023-07-22T10:01:00;20.80;99.90
54082;DHT22;39986;50.770;0.266;2023-07-22T10:03:28;20.80;99.90
54082;DHT22;39986;50.770;0.266;2023-07-22T10:05:54;21.00;99.90
54082;DHT22;39986;50.770;0.266;2023-07-22T10:08:19;20.80;99.90
54082;DHT22;39986;50.770;0.266;2023-07-22T10:10:48;20.90;99.90
54082;DHT22;39986;50.770;0.266;2023-07-22T10:13:17;20.90;99.90
54082;DHT22;39986;50.770;0.266;2023-07-22T10:15:42;21.20;99.90
54082;DHT22;39986;50.770;0.266;2023-07-22T10:18:08;21.10;99.90
54082;DHT22;39986;50.770;0.266;2023-07-22T10:20:35;21.00;99.90
54082;DHT22;39986;50.770;0.266;2023-07-22T10:23:01;21.20;99.90
54082;DHT22;39986;50.770;0.266;2023-07-22T10:25:27;21.30;99.90
54082;DHT22;39986;50.770;0.266;2023-07-22T10:27:53;21.40;99.90
54082;DHT22;39986;50.770;0.266;2023-07-22T10:30:19;21.50;99.90
54082;DHT22;39986;50.770;0.266;2023-07-22T10:32:45;21.60;99.90
54082;DHT22;39986;50.770;0.266;2023-07-22T10:35:12;21.40;99.90
54082;DHT22;39986;50.770;0.266;2023-07-22T10:37:38;21.00;99.90
54082;DHT22;39986;50.770;0.266;2023-07-22T10:40:23;20.90;99.90
54082;DHT22;39986;50.770;0.266;2023-07-22T10:45:25;21.30;99.90
54082;DHT22;39986;50.770;0.266;2023-07-22T10:48:02;21.20;99.90
54082;DHT22;39986;50.770;0.266;2023-07-22T10:50:45;20.80;99.90
54082;DHT22;39986;50.770;0.266;2023-07-22T11:06:31;21.20;99.90
54082;DHT22;39986;50.770;0.266;2023-07-22T11:08:56;21.10;99.90
54082;DHT22;39986;50.770;0.266;2023-07-22T11:11:38;21.30;99.90
54082;DHT22;39986;50.770;0.266;2023-07-22T11:14:17;21.60;99.90
54082;DHT22;39986;50.770;0.266;2023-07-22T11:16:44;22.00;99.90
54082;DHT22;39986;50.770;0.266;2023-07-22T11:19:10;22.50;99.90
54082;DHT22;39986;50.770;0.266;2023-07-22T11:21:35;22.60;99.90
54082;DHT22;39986;50.770;0.266;2023-07-22T11:24:05;22.30;99.90
54082;DHT22;39986;50.770;0.266;2023-07-22T11:26:31;22.00;99.90
54082;DHT22;39986;50.770;0.266;2023-07-22T11:28:57;21.80;99.90
54082;DHT22;39986;50.770;0.266;2023-07-22T11:31:22;21.40;99.90
54082;DHT22;39986;50.770;0.266;2023-07-22T11:33:48;21.20;99.90
54082;DHT22;39986;50.770;0.266;2023-07-22T11:36:13;21.10;99.90
54082;DHT22;39986;50.770;0.266;2023-07-22T11:38:39;20.50;99.90
54082;DHT22;39986;50.770;0.266;2023-07-22T11:41:05;20.20;99.90
54082;DHT22;39986;50.770;0.266;2023-07-22T11:43:31;20.30;99.90
54082;DHT22;39986;50.770;0.266;2023-07-22T11:45:57;20.20;99.90
54082;DHT22;39986;50.770;0.266;2023-07-22T11:48:22;20.20;99.90
54082;DHT22;39986;50.770;0.266;2023-07-22T11:50:48;20.20;99.90
54082;DHT22;39986;50.770;0.266;2023-07-22T11:53:13;19.90;99.90
54082;DHT22;39986;50.770;0.266;2023-07-22T11:55:40;19.80;99.90
54082;DHT22;39986;50.770;0.266;2023-07-22T11:58:06;19.80;99.90
54082;DHT22;39986;50.770;0.266;2023-07-22T12:00:33;19.70;99.90
54082;DHT22;39986;50.770;0.266;2023-07-22T12:03:04;19.80;99.90
54082;DHT22;39986;50.770;0.266;2023-07-22T12:05:30;19.70;99.90
54082;DHT22;39986;50.770;0.266;2023-07-22T12:08:00;19.50;99.90
54082;DHT22;39986;50.770;0.266;2023-07-22T12:10:25;19.60;99.90
54082;DHT22;39986;50.770;0.266;2023-07-22T12:12:51;19.60;99.90
54082;DHT22;39986;50.770;0.266;2023-07-22T12:15:20;19.40;99.90
54082;DHT22;39986;50.770;0.266;2023-07-22T12:20:28;19.10;99.90
54082;DHT22;39986;50.770;0.266;2023-07-22T12:22:54;19.00;99.90
54082;DHT22;39986;50.770;0.266;2023-07-22T12:25:21;18.90;99.90
54082;DHT22;39986;50.770;0.266;2023-07-22T12:27:47;18.60;99.90
54082;DHT22;39986;50.770;0.266;2023-07-22T12:30:12;18.50;99.90
54082;DHT22;39986;50.770;0.266;2023-07-22T12:32:38;18.60;99.90
54082;DHT22;39986;50.770;0.266;2023-07-22T12:35:04;18.50;99.90
54082;DHT22;39986;50.770;0.266;2023-07-22T12:37:29;18.50;99.90
54082;DHT22;39986;50.770;0.266;2023-07-22T12:39:55;18.40;99.90
54082;DHT22;39986;50.770;0.266;2023-07-22T12:42:21;18.00;99.90
54082;DHT22;39986;50.770;0.266;2023-07-22T12:44:46;17.70;99.90
54082;DHT22;39986;50.770;0.266;2023-07-22T12:47:12;17.70;99.90
54082;DHT22;39986;50.770;0.266;2023-07-22T12:49:37;17.40;99.90
54082;DHT22;39986;50.770;0.266;2023-07-22T12:52:03;17.30;99.90
54082;DHT22;39986;50.770;0.266;2023-07-22T12:54:33;17.20;99.90
54082;DHT22;39986;50.770;0.266;2023-07-22T12:56:58;17.10;99.90
54082;DHT22;39986;50.770;0.266;2023-07-22T12:59:24;17.00;99.90
54082;DHT22;39986;50.770;0.266;2023-07-22T13:01:49;16.90;99.90
54082;DHT22;39986;50.770;0.266;2023-07-22T13:04:15;17.00;99.90
54082;DHT22;39986;50.770;0.266;2023-07-22T13:06:40;17.10;99.90
54082;DHT22;39986;50.770;0.266;2023-07-22T13:09:06;17.00;99.90
54082;DHT22;39986;50.770;0.266;2023-07-22T13:11:31;16.90;99.90
54082;DHT22;39986;50.770;0.266;2023-07-22T13:13:57;17.00;99.90
54082;DHT22;39986;50.770;0.266;2023-07-22T13:16:22;17.00;99.90
54082;DHT22;39986;50.770;0.266;2023-07-22T13:18:48;17.00;99.90
54082;DHT22;39986;50.770;0.266;2023-07-22T13:21:14;17.20;99.90
54082;DHT22;39986;50.770;0.266;2023-07-22T13:23:39;17.50;99.90
54082;DHT22;39986;50.770;0.266;2023-07-22T13:26:05;17.80;99.90
54082;DHT22;39986;50.770;0.266;2023-07-22T13:28:30;18.10;99.90
54082;DHT22;39986;50.770;0.266;2023-07-22T13:30:56;18.40;99.90
54082;DHT22;39986;50.770;0.266;2023-07-22T13:33:22;19.30;99.90
54082;DHT22;39986;50.770;0.266;2023-07-22T13:35:47;20.10;99.90
54082;DHT22;39986;50.770;0.266;2023-07-22T13:38:13;20.50;99.90
54082;DHT22;39986;50.770;0.266;2023-07-22T13:40:38;20.80;99.90
54082;DHT22;39986;50.770;0.266;2023-07-22T13:43:04;20.70;99.90
54082;DHT22;39986;50.770;0.266;2023-07-22T13:45:29;20.60;99.90
54082;DHT22;39986;50.770;0.266;2023-07-22T13:47:55;20.20;99.90
54082;DHT22;39986;50.770;0.266;2023-07-22T13:50:20;19.90;99.90
54082;DHT22;39986;50.770;0.266;2023-07-22T13:52:46;19.80;99.90
54082;DHT22;39986;50.770;0.266;2023-07-22T13:55:12;19.80;99.90
54082;DHT22;39986;50.770;0.266;2023-07-22T13:57:37;20.00;99.90
54082;DHT22;39986;50.770;0.266;2023-07-22T14:00:03;20.10;99.90
54082;DHT22;39986;50.770;0.266;2023-07-22T14:02:34;20.10;99.90
54082;DHT22;39986;50.770;0.266;2023-07-22T14:04:59;20.10;99.90
54082;DHT22;39986;50.770;0.266;2023-07-22T14:07:25;20.00;99.90
54082;DHT22;39986;50.770;0.266;2023-07-22T14:09:50;19.80;99.90
54082;DHT22;39986;50.770;0.266;2023-07-22T14:12:16;19.40;99.90
54082;DHT22;39986;50.770;0.266;2023-07-22T14:14:41;19.10;99.90
54082;DHT22;39986;50.770;0.266;2023-07-22T14:17:07;19.10;99.90
54082;DHT22;39986;50.770;0.266;2023-07-22T14:19:32;19.10;99.90
54082;DHT22;39986;50.770;0.266;2023-07-22T14:21:58;19.20;99.90
54082;DHT22;39986;50.770;0.266;2023-07-22T14:24:24;19.30;99.90
54082;DHT22;39986;50.770;0.266;2023-07-22T14:26:49;19.40;99.90
54082;DHT22;39986;50.770;0.266;2023-07-22T14:29:15;19.30;99.90
54082;DHT22;39986;50.770;0.266;2023-07-22T14:31:41;19.40;99.90
54082;DHT22;39986;50.770;0.266;2023-07-22T14:34:07;19.40;99.90
54082;DHT22;39986;50.770;0.266;2023-07-22T14:36:33;19.40;99.90
54082;DHT22;39986;50.770;0.266;2023-07-22T14:38:58;19.20;99.90
54082;DHT22;39986;50.770;0.266;2023-07-22T14:41:24;19.20;99.90
54082;DHT22;39986;50.770;0.266;2023-07-22T14:43:49;19.10;99.90
54082;DHT22;39986;50.770;0.266;2023-07-22T14:46:15;18.90;99.90
54082;DHT22;39986;50.770;0.266;2023-07-22T14:48:40;18.80;99.90
54082;DHT22;39986;50.770;0.266;2023-07-22T14:51:07;18.80;99.90
54082;DHT22;39986;50.770;0.266;2023-07-22T14:53:33;18.60;99.90
54082;DHT22;39986;50.770;0.266;2023-07-22T14:55:59;18.70;99.90
54082;DHT22;39986;50.770;0.266;2023-07-22T14:58:24;18.70;99.90
54082;DHT22;39986;50.770;0.266;2023-07-22T15:00:50;18.60;99.90
54082;DHT22;39986;50.770;0.266;2023-07-22T15:03:16;18.50;99.90
54082;DHT22;39986;50.770;0.266;2023-07-22T15:05:42;18.20;99.90
54082;DHT22;39986;50.770;0.266;2023-07-22T15:08:07;17.90;99.90
54082;DHT22;39986;50.770;0.266;2023-07-22T15:10:33;17.80;99.90
54082;DHT22;39986;50.770;0.266;2023-07-22T15:12:58;17.50;99.90
54082;DHT22;39986;50.770;0.266;2023-07-22T15:15:24;17.50;99.90
54082;DHT22;39986;50.770;0.266;2023-07-22T15:17:49;17.20;99.90
54082;DHT22;39986;50.770;0.266;2023-07-22T15:20:15;17.10;99.90
54082;DHT22;39986;50.770;0.266;2023-07-22T15:22:40;17.10;99.90
54082;DHT22;39986;50.770;0.266;2023-07-22T15:25:06;17.00;99.90
54082;DHT22;39986;50.770;0.266;2023-07-22T15:27:32;17.00;99.90
54082;DHT22;39986;50.770;0.266;2023-07-22T15:29:58;16.90;99.90
54082;DHT22;39986;50.770;0.266;2023-07-22T15:32:23;16.70;99.90
54082;DHT22;39986;50.770;0.266;2023-07-22T15:34:49;16.60;99.90
54082;DHT22;39986;50.770;0.266;2023-07-22T15:37:14;16.50;99.90
54082;DHT22;39986;50.770;0.266;2023-07-22T15:39:40;16.40;99.90
54082;DHT22;39986;50.770;0.266;2023-07-22T15:42:06;16.40;99.90
54082;DHT22;39986;50.770;0.266;2023-07-22T15:44:31;16.30;99.90
54082;DHT22;39986;50.770;0.266;2023-07-22T15:46:57;16.20;99.90